PDT,Max TemperatureF,Mean TemperatureF,Min TemperatureF,Max Dew PointF,MeanDew PointF,Min DewpointF,Max Humidity, Mean Humidity, Min Humidity, Max Sea Level PressureIn, Mean Sea Level PressureIn, Min Sea Level PressureIn, Max VisibilityMiles, Mean VisibilityMiles, Min VisibilityMiles, Max Wind SpeedMPH, Mean Wind SpeedMPH, Max Gust SpeedMPH,PrecipitationIn, CloudCover, Events, WindDirDegrees
2012-9-1,107,94,82,45,38,28,27,16,8,29.89,29.83,29.77,10,10,10,14,6,,0.00,1,,278
2012-9-2,109,96,84,53,43,35,24,17,10,29.87,29.81,29.73,10,10,10,15,6,,0.00,0,,258
2012-9-3,106,94,81,77,68,49,74,46,24,29.92,29.85,29.76,10,10,10,16,6,17,0.00,1,,130
2012-9-4,105,92,82,78,72,66,82,53,31,29.97,29.89,29.80,10,9,2,26,8,31,0.00,2,,128
2012-9-5,105,93,81,76,64,41,82,44,15,29.93,29.86,29.78,10,10,10,16,6,16,0.00,1,,240
2012-9-6,105,92,80,74,55,45,69,29,17,29.90,29.84,29.77,10,10,10,10,5,,0.00,1,,215
2012-9-7,102,92,82,69,62,56,51,36,25,29.95,29.88,29.82,10,10,10,10,5,,0.00,0,,224
2012-9-8,105,92,82,70,65,62,61,41,27,29.90,29.84,29.78,10,10,10,8,2,,0.00,2,,161
2012-9-9,100,90,78,74,68,62,87,52,29,29.94,29.85,29.77,10,10,10,40,7,46,0.00,1,Rain,130
2012-9-10,89,82,75,73,70,67,85,68,49,29.96,29.90,29.83,10,10,10,20,6,25,0.00,3,,123
2012-9-11,93,83,75,73,71,68,87,67,45,29.93,29.88,29.83,10,10,10,15,7,,0.00,2,,121
2012-9-12,98,88,78,74,68,64,84,55,36,30.00,29.93,29.87,10,10,10,7,3,,0.00,1,,132
2012-9-13,106,92,78,67,56,48,62,35,15,29.99,29.93,29.88,10,10,10,13,5,16,0.00,0,,317
2012-9-14,105,90,77,54,47,34,40,24,9,30.04,29.97,29.92,10,10,10,10,6,,0.00,0,,83
2012-9-15,102,86,71,50,45,39,44,26,12,30.08,29.99,29.92,10,10,10,8,3,,0.00,0,,120
2012-9-16,102,86,71,65,52,43,49,31,20,30.03,29.95,29.87,10,10,10,12,3,,0.00,0,,195
2012-9-17,104,88,75,48,44,38,37,22,11,29.96,29.90,29.83,10,10,10,12,6,,0.00,0,,241
2012-9-18,104,86,70,53,47,43,53,27,13,29.96,29.90,29.85,10,10,10,7,5,,0.00,0,,194
2012-9-19,107,89,73,54,49,45,46,26,15,29.94,29.88,29.82,10,10,10,12,6,,0.00,0,,308
2012-9-20,108,92,77,52,47,40,40,23,11,29.91,29.85,29.79,10,10,10,9,5,,0.00,0,,248
2012-9-21,108,94,81,54,47,39,36,22,10,29.88,29.81,29.75,10,10,10,9,5,,0.00,2,,276
2012-9-22,107,92,78,53,47,43,37,22,12,29.88,29.82,29.78,10,10,10,10,5,,0.00,2,,236
2012-9-23,108,94,80,49,43,36,28,19,9,29.92,29.86,29.82,10,10,10,12,6,,0.00,0,,289
2012-9-24,108,92,79,49,42,35,29,19,10,29.93,29.85,29.78,10,10,10,25,9,29,0.00,0,,262
2012-9-25,102,88,75,48,43,38,31,22,11,29.85,29.79,29.72,10,10,10,22,11,26,0.00,0,,253
2012-9-26,99,82,66,47,42,36,45,25,12,29.83,29.79,29.75,10,10,10,13,6,,0.00,0,,201
2012-9-27,98,82,66,69,55,44,62,39,28,29.91,29.85,29.80,10,10,10,12,3,,0.00,0,,120
2012-9-28,99,85,72,70,57,39,81,47,13,29.92,29.85,29.78,10,10,10,7,2,,0.00,1,,311
2012-9-29,102,86,72,52,46,42,43,27,13,29.96,29.89,29.84,10,10,10,8,4,,0.00,1,,269
2012-9-30,108,89,70,47,40,32,39,20,7,29.96,29.89,29.83,10,10,10,9,6,,0.00,1,,267